createdAt,value
2022-08-08T00:00:56.162Z,14.40
2022-08-08T00:03:32.431Z,14.50
2022-08-08T00:06:03.751Z,14.50
2022-08-08T00:08:57.139Z,14.60
2022-08-08T00:12:07.497Z,14.60
2022-08-08T00:14:59.357Z,14.70
2022-08-08T00:17:35.307Z,14.70
2022-08-08T00:20:14.692Z,14.70
2022-08-08T00:22:51.959Z,14.80
2022-08-08T00:25:44.983Z,14.80
2022-08-08T00:28:35.725Z,14.80
2022-08-08T00:32:20.873Z,14.90
2022-08-08T00:34:18.484Z,14.80
2022-08-08T00:36:35.303Z,14.90
2022-08-08T00:41:07.414Z,14.90
2022-08-08T00:42:29.450Z,14.90
2022-08-08T00:45:21.476Z,14.90
2022-08-08T00:48:30.217Z,14.90
2022-08-08T00:51:07.849Z,14.90
2022-08-08T00:54:17.071Z,14.90
2022-08-08T00:57:23.375Z,14.90
2022-08-08T00:59:57.104Z,14.90
2022-08-08T01:03:57.904Z,15.00
2022-08-08T01:05:59.254Z,15.00
2022-08-08T01:08:42.356Z,15.00
2022-08-08T01:11:42.386Z,15.00
2022-08-08T01:14:54.613Z,15.00
2022-08-08T01:17:13.805Z,15.00
2022-08-08T01:20:14.253Z,15.00
2022-08-08T01:24:05.842Z,15.00
2022-08-08T01:26:17.375Z,14.90
2022-08-08T01:29:24.085Z,14.90
2022-08-08T01:32:17.667Z,14.90
2022-08-08T01:35:11.350Z,14.80
2022-08-08T01:38:10.872Z,14.90
2022-08-08T01:41:09.943Z,14.80
2022-08-08T01:44:04.183Z,14.90
2022-08-08T01:46:58.452Z,14.90
2022-08-08T01:49:57.106Z,14.90
2022-08-08T01:53:28.931Z,14.90
2022-08-08T01:55:45.634Z,15.00
2022-08-08T01:58:13.902Z,15.00
2022-08-08T02:01:09.063Z,15.00
2022-08-08T02:03:59.930Z,14.90
2022-08-08T02:06:52.225Z,14.90
2022-08-08T02:10:03.305Z,14.90
2022-08-08T02:12:25.624Z,14.90
2022-08-08T02:15:00.989Z,14.90
2022-08-08T02:17:42.991Z,14.90
2022-08-08T02:21:02.777Z,14.90
2022-08-08T02:23:16.435Z,14.90
2022-08-08T02:26:07.564Z,14.90
2022-08-08T02:28:58.082Z,14.80
2022-08-08T02:31:57.855Z,14.80
2022-08-08T02:34:33.018Z,14.80
2022-08-08T02:37:52.306Z,14.80
2022-08-08T02:40:03.378Z,14.80
2022-08-08T02:44:35.221Z,14.80
2022-08-08T02:45:54.226Z,14.80
2022-08-08T02:48:48.074Z,14.80
2022-08-08T02:51:59.108Z,14.80
2022-08-08T02:54:40.674Z,14.70
2022-08-08T02:57:44.808Z,14.80
2022-08-08T03:00:31.843Z,14.70
2022-08-08T03:03:12.938Z,14.70
2022-08-08T03:06:00.165Z,14.70
2022-08-08T03:08:51.757Z,14.70
2022-08-08T03:12:02.433Z,14.70
2022-08-08T03:15:58.626Z,14.70
2022-08-08T03:17:39.774Z,14.70
2022-08-08T03:20:08.088Z,14.70
2022-08-08T03:22:56.759Z,14.70
2022-08-08T03:25:33.976Z,14.70
2022-08-08T03:28:06.964Z,14.70
2022-08-08T03:30:40.413Z,14.70
2022-08-08T03:33:56.261Z,14.70
2022-08-08T03:36:00.420Z,14.70
2022-08-08T03:38:57.202Z,14.70
2022-08-08T03:41:08.843Z,14.70
2022-08-08T03:43:42.505Z,14.70
2022-08-08T03:46:16.773Z,14.70
2022-08-08T03:49:54.961Z,14.70
2022-08-08T03:51:47.016Z,14.70
2022-08-08T03:54:07.149Z,14.70
2022-08-08T03:56:41.812Z,14.70
2022-08-08T03:59:22.650Z,14.70
2022-08-08T04:02:13.140Z,14.70
2022-08-08T04:04:30.806Z,14.70
2022-08-08T04:07:02.420Z,14.70
2022-08-08T04:10:00.465Z,14.70
2022-08-08T04:12:15.820Z,14.80
2022-08-08T04:14:50.524Z,14.80
2022-08-08T04:17:46.390Z,14.80
2022-08-08T04:19:58.257Z,14.70
2022-08-08T04:22:32.481Z,14.70
2022-08-08T04:25:06.904Z,14.70
2022-08-08T04:28:01.301Z,14.70
2022-08-08T04:30:17.725Z,14.70
2022-08-08T04:32:50.924Z,14.70
2022-08-08T04:35:34.485Z,14.70
2022-08-08T04:38:09.617Z,14.70
2022-08-08T04:40:53.608Z,14.70
2022-08-08T04:43:15.601Z,14.70
2022-08-08T04:45:48.538Z,14.70
2022-08-08T04:48:22.642Z,14.70
2022-08-08T04:50:55.638Z,14.70
2022-08-08T04:54:27.102Z,14.70
2022-08-08T04:56:03.142Z,14.70
2022-08-08T04:58:39.237Z,14.70
2022-08-08T05:01:12.231Z,14.70
2022-08-08T05:04:08.985Z,14.60
2022-08-08T05:06:25.577Z,14.60
2022-08-08T05:08:54.242Z,14.60
2022-08-08T05:11:28.674Z,14.60
2022-08-08T05:14:02.310Z,14.60
2022-08-08T05:16:54.929Z,14.60
2022-08-08T05:20:09.785Z,14.60
2022-08-08T05:21:57.987Z,14.60
2022-08-08T05:24:26.206Z,14.60
2022-08-08T05:26:57.217Z,14.60
2022-08-08T05:29:30.000Z,14.60
2022-08-08T05:32:06.511Z,14.60
2022-08-08T05:34:49.528Z,14.50
2022-08-08T05:37:39.062Z,14.50
2022-08-08T05:39:59.503Z,14.50
2022-08-08T05:42:40.070Z,14.50
2022-08-08T05:45:25.395Z,14.50
2022-08-08T05:47:59.986Z,14.50
2022-08-08T05:50:25.066Z,14.50
2022-08-08T05:52:58.286Z,14.50
2022-08-08T05:56:11.364Z,14.50
2022-08-08T05:58:20.380Z,14.50
2022-08-08T06:00:44.725Z,14.50
2022-08-08T06:03:25.305Z,14.50
2022-08-08T06:06:05.237Z,14.50
2022-08-08T06:08:53.451Z,14.50
2022-08-08T06:11:18.857Z,14.50
2022-08-08T06:13:52.874Z,14.50
2022-08-08T06:16:30.283Z,14.50
2022-08-08T06:19:04.093Z,14.50
2022-08-08T06:21:51.359Z,14.50
2022-08-08T06:24:14.038Z,14.40
2022-08-08T06:26:50.573Z,14.50
2022-08-08T06:30:00.314Z,14.50
2022-08-08T06:32:10.495Z,14.40
2022-08-08T06:34:42.187Z,14.50
2022-08-08T06:37:36.986Z,14.40
2022-08-08T06:39:56.089Z,14.40
2022-08-08T06:42:28.308Z,14.40
2022-08-08T06:45:02.008Z,14.40
2022-08-08T06:47:52.318Z,14.40
2022-08-08T06:50:12.884Z,14.40
2022-08-08T06:52:47.859Z,14.40
2022-08-08T06:55:23.262Z,14.40
2022-08-08T06:57:59.382Z,14.40
2022-08-08T07:00:30.880Z,14.40
2022-08-08T07:03:05.427Z,14.40
2022-08-08T07:05:40.215Z,14.40
2022-08-08T07:08:18.269Z,14.40
2022-08-08T07:10:54.246Z,14.40
2022-08-08T07:13:29.787Z,14.40
2022-08-08T07:16:12.178Z,14.40
2022-08-08T07:19:10.075Z,14.40
2022-08-08T07:21:48.308Z,14.40
2022-08-08T07:24:31.829Z,14.40
2022-08-08T07:27:05.769Z,14.40
2022-08-08T07:29:59.912Z,14.40
2022-08-08T07:32:15.691Z,14.40
2022-08-08T07:35:00.424Z,14.40
2022-08-08T07:37:25.320Z,14.40
2022-08-08T07:39:59.925Z,14.40
2022-08-08T07:42:44.394Z,14.40
2022-08-08T07:45:18.972Z,14.40
2022-08-08T07:47:51.581Z,14.40
2022-08-08T07:50:28.266Z,14.40
2022-08-08T07:53:02.903Z,14.30
2022-08-08T07:55:40.494Z,14.40
2022-08-08T07:58:49.972Z,14.40
2022-08-08T08:01:27.047Z,14.30
2022-08-08T08:04:13.751Z,14.40
2022-08-08T08:06:44.007Z,14.40
2022-08-08T08:09:32.988Z,14.40
2022-08-08T08:12:05.974Z,14.40
2022-08-08T08:14:49.736Z,14.40
2022-08-08T08:17:24.054Z,14.30
2022-08-08T08:19:59.741Z,14.40
2022-08-08T08:22:33.825Z,14.40
2022-08-08T08:25:08.001Z,14.40
2022-08-08T08:27:47.003Z,14.40
2022-08-08T08:30:20.024Z,14.40
2022-08-08T08:32:54.156Z,14.40
2022-08-08T08:35:29.887Z,14.40
2022-08-08T08:38:17.143Z,14.40
2022-08-08T08:40:38.773Z,14.40
2022-08-08T08:43:15.420Z,14.40
2022-08-08T08:45:49.189Z,14.40
2022-08-08T08:48:24.458Z,14.40
2022-08-08T08:50:58.939Z,14.40
2022-08-08T08:53:56.200Z,14.40
2022-08-08T08:56:07.793Z,14.40
2022-08-08T08:58:50.326Z,14.40
2022-08-08T09:01:30.766Z,14.40
2022-08-08T09:04:07.044Z,14.30
2022-08-08T09:06:50.133Z,14.30
2022-08-08T09:09:39.601Z,14.40
2022-08-08T09:12:08.055Z,14.30
2022-08-08T09:14:43.148Z,14.30
2022-08-08T09:17:18.735Z,14.30
2022-08-08T09:21:58.979Z,14.30
2022-08-08T09:22:28.289Z,14.30
2022-08-08T09:25:01.668Z,14.30
2022-08-08T09:27:42.004Z,14.30
2022-08-08T09:30:14.503Z,14.30
2022-08-08T09:33:54.528Z,14.30
2022-08-08T09:35:32.294Z,14.30
2022-08-08T09:38:06.309Z,14.30
2022-08-08T09:40:44.097Z,14.30
2022-08-08T09:43:40.397Z,14.30
2022-08-08T09:46:08.280Z,14.30
2022-08-08T09:48:43.455Z,14.30
2022-08-08T09:51:18.489Z,14.30
2022-08-08T09:54:08.568Z,14.30
2022-08-08T09:56:40.995Z,14.30
2022-08-08T09:59:39.547Z,14.30
2022-08-08T10:01:59.339Z,14.30
2022-08-08T10:04:38.460Z,14.30
2022-08-08T10:07:01.882Z,14.20
2022-08-08T10:09:59.269Z,14.20
2022-08-08T10:12:27.507Z,14.20
2022-08-08T10:14:45.637Z,14.20
2022-08-08T10:17:57.458Z,14.30
2022-08-08T10:19:58.049Z,14.30
2022-08-08T10:22:30.407Z,14.30
2022-08-08T10:25:15.447Z,14.30
2022-08-08T10:27:47.274Z,14.20
2022-08-08T10:31:00.135Z,14.20
2022-08-08T10:33:02.914Z,14.30
2022-08-08T10:36:07.728Z,14.30
2022-08-08T10:38:13.756Z,14.20
2022-08-08T10:40:48.118Z,14.20
2022-08-08T10:43:23.115Z,14.20
2022-08-08T10:45:58.563Z,14.20
2022-08-08T10:48:56.575Z,14.20
2022-08-08T10:51:21.709Z,14.20
2022-08-08T10:53:59.577Z,14.20
2022-08-08T10:56:34.636Z,14.20
2022-08-08T10:59:14.231Z,14.20
2022-08-08T11:01:54.270Z,14.20
2022-08-08T11:04:38.747Z,14.20
2022-08-08T11:07:03.370Z,14.20
2022-08-08T11:09:36.517Z,14.10
2022-08-08T11:12:13.193Z,14.10
2022-08-08T11:14:55.572Z,14.10
2022-08-08T11:18:00.535Z,14.10
2022-08-08T11:20:11.161Z,14.10
2022-08-08T11:22:41.710Z,14.10
2022-08-08T11:25:16.307Z,14.10
2022-08-08T11:27:50.269Z,14.10
2022-08-08T11:30:27.319Z,14.10
2022-08-08T11:33:05.212Z,14.20
2022-08-08T11:35:42.774Z,14.20
2022-08-08T11:38:36.629Z,14.10
2022-08-08T11:40:45.546Z,14.10
2022-08-08T11:43:19.694Z,14.10
2022-08-08T11:46:13.886Z,14.10
2022-08-08T11:48:30.206Z,14.10
2022-08-08T11:51:38.632Z,14.10
2022-08-08T11:53:42.829Z,14.10
2022-08-08T11:56:24.330Z,14.10
2022-08-08T11:58:58.194Z,14.10
2022-08-08T12:01:37.242Z,14.10
2022-08-08T12:04:11.702Z,14.10
2022-08-08T12:06:44.835Z,14.10
2022-08-08T12:09:19.003Z,14.10
2022-08-08T12:11:52.079Z,14.10
2022-08-08T12:14:28.935Z,14.10
2022-08-08T12:17:02.472Z,14.10
2022-08-08T12:19:51.024Z,14.10
2022-08-08T12:22:21.096Z,14.10
2022-08-08T12:24:55.984Z,14.10
2022-08-08T12:27:26.538Z,14.10
2022-08-08T12:30:04.433Z,14.10
2022-08-08T12:32:48.331Z,14.10
2022-08-08T12:35:25.615Z,14.10
2022-08-08T12:38:17.880Z,14.10
2022-08-08T12:40:57.167Z,14.10
2022-08-08T12:43:47.674Z,14.10
2022-08-08T12:46:10.326Z,14.10
2022-08-08T12:48:59.722Z,14.10
2022-08-08T12:51:21.812Z,14.10
2022-08-08T12:54:24.426Z,14.10
2022-08-08T12:56:45.023Z,14.10
2022-08-08T12:59:36.710Z,14.10
2022-08-08T13:02:00.813Z,14.10
2022-08-08T13:04:35.871Z,14.10
2022-08-08T13:07:16.808Z,14.10
2022-08-08T13:10:05.247Z,14.10
2022-08-08T13:12:47.185Z,14.00
2022-08-08T13:15:22.717Z,14.00
2022-08-08T13:18:11.199Z,14.10
2022-08-08T13:20:30.314Z,14.10
2022-08-08T13:23:30.970Z,14.10
2022-08-08T13:25:39.261Z,14.10
2022-08-08T13:28:12.357Z,14.10
2022-08-08T13:30:46.705Z,14.00
2022-08-08T13:33:20.743Z,14.00
2022-08-08T13:35:55.166Z,14.10
2022-08-08T13:38:29.347Z,14.10
2022-08-08T13:41:02.726Z,14.10
2022-08-08T13:43:35.673Z,14.10
2022-08-08T13:46:27.059Z,14.00
2022-08-08T13:50:33.901Z,14.10
2022-08-08T13:51:37.372Z,14.00
2022-08-08T13:54:01.477Z,14.00
2022-08-08T13:56:44.681Z,14.00
2022-08-08T13:59:11.347Z,14.00
2022-08-08T14:01:57.151Z,14.00
2022-08-08T14:04:20.827Z,14.00
2022-08-08T14:06:54.979Z,13.90
2022-08-08T14:10:02.389Z,13.90
2022-08-08T14:12:04.399Z,13.90
2022-08-08T14:14:45.021Z,13.90
2022-08-08T14:17:22.625Z,13.90
2022-08-08T14:19:57.190Z,13.90
2022-08-08T14:22:30.659Z,13.90
2022-08-08T14:25:07.776Z,13.90
2022-08-08T14:27:44.334Z,13.90
2022-08-08T14:30:19.984Z,13.90
2022-08-08T14:32:55.146Z,14.00
2022-08-08T14:35:36.021Z,14.00
2022-08-08T14:38:09.360Z,14.00
2022-08-08T14:40:45.543Z,14.00
2022-08-08T14:43:22.556Z,14.00
2022-08-08T14:46:02.868Z,14.00
2022-08-08T14:48:34.435Z,14.00
2022-08-08T14:50:59.855Z,14.00
2022-08-08T14:53:35.388Z,14.00
2022-08-08T14:56:10.022Z,13.90
2022-08-08T14:58:43.021Z,13.90
2022-08-08T15:01:23.867Z,13.90
2022-08-08T15:03:53.695Z,13.90
2022-08-08T15:06:25.994Z,13.80
2022-08-08T15:08:59.109Z,13.80
2022-08-08T15:11:43.360Z,13.80
2022-08-08T15:14:09.895Z,13.80
2022-08-08T15:16:42.397Z,13.80
2022-08-08T15:19:15.663Z,13.80
2022-08-08T15:21:48.785Z,13.70
2022-08-08T15:24:21.952Z,13.70
2022-08-08T15:26:56.185Z,13.70
2022-08-08T15:29:29.967Z,13.60
2022-08-08T15:32:19.476Z,13.60
2022-08-08T15:34:37.484Z,13.60
2022-08-08T15:37:13.000Z,13.60
2022-08-08T15:39:48.037Z,13.60
2022-08-08T15:42:31.697Z,13.60
2022-08-08T15:44:56.909Z,13.60
2022-08-08T15:47:32.207Z,13.60
2022-08-08T15:50:04.499Z,13.60
2022-08-08T15:52:39.316Z,13.60
2022-08-08T15:55:15.616Z,13.50
2022-08-08T15:57:48.767Z,13.50
2022-08-08T16:00:27.472Z,13.50
2022-08-08T16:02:57.650Z,13.50
2022-08-08T16:05:35.277Z,13.50
2022-08-08T16:08:06.704Z,13.50
2022-08-08T16:13:09.456Z,13.50
2022-08-08T16:13:32.090Z,13.50
2022-08-08T16:15:57.671Z,13.50
2022-08-08T16:18:22.423Z,13.50
2022-08-08T16:21:00.352Z,13.50
2022-08-08T16:23:32.350Z,13.50
2022-08-08T16:26:17.698Z,13.50
2022-08-08T16:28:45.764Z,13.50
2022-08-08T16:31:19.403Z,13.50
2022-08-08T16:33:59.225Z,13.50
2022-08-08T16:36:33.499Z,13.40
2022-08-08T16:39:01.528Z,13.40
2022-08-08T16:41:36.175Z,13.40
2022-08-08T16:44:12.563Z,13.40
2022-08-08T16:46:46.286Z,13.40
2022-08-08T16:49:18.561Z,13.30
2022-08-08T16:55:02.071Z,13.30
2022-08-08T16:55:06.930Z,13.30
2022-08-08T16:57:03.542Z,13.40
2022-08-08T16:59:52.157Z,13.40
2022-08-08T17:02:41.865Z,13.40
2022-08-08T17:04:45.286Z,13.40
2022-08-08T17:07:19.484Z,13.40
2022-08-08T17:09:52.813Z,13.40
2022-08-08T17:12:28.396Z,13.40
2022-08-08T17:15:00.853Z,13.40
2022-08-08T17:18:01.169Z,13.30
2022-08-08T17:20:09.964Z,13.30
2022-08-08T17:22:44.349Z,13.30
2022-08-08T17:25:19.316Z,13.20
2022-08-08T17:27:53.986Z,13.20
2022-08-08T17:30:29.324Z,13.20
2022-08-08T17:34:53.029Z,13.20
2022-08-08T17:35:53.440Z,13.20
2022-08-08T17:38:13.924Z,13.20
2022-08-08T17:40:48.960Z,13.20
2022-08-08T17:43:21.843Z,13.20
2022-08-08T17:45:57.125Z,13.20
2022-08-08T17:48:31.119Z,13.20
2022-08-08T17:51:04.177Z,13.20
2022-08-08T17:53:43.670Z,13.20
2022-08-08T17:56:11.650Z,13.20
2022-08-08T17:58:46.542Z,13.10
2022-08-08T18:01:30.004Z,13.10
2022-08-08T18:03:55.867Z,13.10
2022-08-08T18:06:31.297Z,13.10
2022-08-08T18:09:03.548Z,13.10
2022-08-08T18:11:36.646Z,13.10
2022-08-08T18:14:21.847Z,13.10
2022-08-08T18:17:03.805Z,13.10
2022-08-08T18:19:45.769Z,13.10
2022-08-08T18:22:50.130Z,13.10
2022-08-08T18:24:48.621Z,13.10
2022-08-08T18:27:21.727Z,13.10
2022-08-08T18:29:55.309Z,13.10
2022-08-08T18:32:28.155Z,13.00
2022-08-08T18:35:01.282Z,13.00
2022-08-08T18:37:48.272Z,13.00
2022-08-08T18:40:12.935Z,13.00
2022-08-08T18:42:45.680Z,13.00
2022-08-08T18:46:00.545Z,12.90
2022-08-08T18:47:52.477Z,12.90
2022-08-08T18:50:25.557Z,12.90
2022-08-08T18:52:59.804Z,12.90
2022-08-08T18:55:32.728Z,12.90
2022-08-08T18:58:05.644Z,12.90
2022-08-08T19:00:46.425Z,12.80
2022-08-08T19:03:12.981Z,12.80
2022-08-08T19:05:49.856Z,12.80
2022-08-08T19:08:24.490Z,12.90
2022-08-08T19:10:56.448Z,12.90
2022-08-08T19:13:52.803Z,12.90
2022-08-08T19:16:03.421Z,12.90
2022-08-08T19:18:48.435Z,12.90
2022-08-08T19:21:29.258Z,12.90
2022-08-08T19:23:46.992Z,13.00
2022-08-08T19:26:30.264Z,13.00
2022-08-08T19:28:56.792Z,13.00
2022-08-08T19:31:35.190Z,13.00
2022-08-08T19:34:36.742Z,13.00
2022-08-08T19:36:41.324Z,13.00
2022-08-08T19:39:15.570Z,13.00
2022-08-08T19:41:49.696Z,13.00
2022-08-08T19:44:26.897Z,13.00
2022-08-08T19:46:57.298Z,13.00
2022-08-08T19:49:36.491Z,13.00
2022-08-08T19:52:10.498Z,13.00
2022-08-08T19:54:49.495Z,13.00
2022-08-08T19:57:19.682Z,13.00
2022-08-08T19:59:53.793Z,13.00
2022-08-08T20:06:14.664Z,12.90
2022-08-08T20:08:39.352Z,12.90
2022-08-08T20:10:40.605Z,12.90
2022-08-08T20:14:12.653Z,12.90
2022-08-08T20:16:00.252Z,12.90
2022-08-08T20:18:29.701Z,12.90
2022-08-08T20:20:58.922Z,12.90
2022-08-08T20:23:32.958Z,12.90
2022-08-08T20:26:06.562Z,12.90
2022-08-08T20:28:40.780Z,12.90
2022-08-08T20:31:19.020Z,12.90
2022-08-08T20:34:30.281Z,12.90
2022-08-08T20:36:23.763Z,12.90
2022-08-08T20:38:57.996Z,12.90
2022-08-08T20:41:31.329Z,12.90
2022-08-08T20:44:05.912Z,12.90
2022-08-08T20:46:39.267Z,12.90
2022-08-08T20:49:13.634Z,13.00
2022-08-08T20:51:47.896Z,13.00
2022-08-08T20:54:26.385Z,13.00
2022-08-08T20:57:11.748Z,13.00
2022-08-08T20:59:30.861Z,13.00
2022-08-08T21:02:07.604Z,13.00
2022-08-08T21:04:38.060Z,13.00
2022-08-08T21:07:16.086Z,13.00
2022-08-08T21:10:07.872Z,13.00
2022-08-08T21:12:24.881Z,13.00
2022-08-08T21:14:58.385Z,13.00
2022-08-08T21:17:33.288Z,13.00
2022-08-08T21:20:06.434Z,13.10
2022-08-08T21:22:39.447Z,13.10
2022-08-08T21:25:14.421Z,13.10
2022-08-08T21:28:10.231Z,13.10
2022-08-08T21:30:22.403Z,13.10
2022-08-08T21:32:56.015Z,13.20
2022-08-08T21:36:14.350Z,13.20
2022-08-08T21:38:11.968Z,13.20
2022-08-08T21:40:56.529Z,13.20
2022-08-08T21:43:20.764Z,13.20
2022-08-08T21:48:06.281Z,13.20
2022-08-08T21:48:44.711Z,13.30
2022-08-08T21:51:16.429Z,13.30
2022-08-08T21:54:33.385Z,13.30
2022-08-08T21:56:32.285Z,13.30
2022-08-08T21:59:04.000Z,13.30
2022-08-08T22:01:41.320Z,13.30
2022-08-08T22:04:14.681Z,13.30
2022-08-08T22:06:48.629Z,13.30
2022-08-08T22:09:40.881Z,13.30
2022-08-08T22:12:09.446Z,13.40
2022-08-08T22:14:36.004Z,13.40
2022-08-08T22:17:09.031Z,13.40
2022-08-08T22:20:12.059Z,13.40
2022-08-08T22:22:16.945Z,13.40
2022-08-08T22:24:53.922Z,13.40
2022-08-08T22:27:38.832Z,13.40
2022-08-08T22:30:03.296Z,13.40
2022-08-08T22:32:35.830Z,13.50
2022-08-08T22:35:09.454Z,13.40
2022-08-08T22:37:54.785Z,13.40
2022-08-08T22:40:23.318Z,13.40
2022-08-08T22:43:01.294Z,13.50
2022-08-08T22:45:34.728Z,13.50
2022-08-08T22:48:09.609Z,13.50
2022-08-08T22:50:44.869Z,13.50
2022-08-08T22:54:30.756Z,13.50
2022-08-08T22:55:57.994Z,13.50
2022-08-08T22:58:28.674Z,13.50
2022-08-08T23:01:01.592Z,13.60
2022-08-08T23:03:53.794Z,13.60
2022-08-08T23:06:11.339Z,13.60
2022-08-08T23:08:55.352Z,13.60
2022-08-08T23:11:19.542Z,13.60
2022-08-08T23:14:00.882Z,13.70
2022-08-08T23:16:41.523Z,13.70
2022-08-08T23:19:00.907Z,13.70
2022-08-08T23:21:34.260Z,13.70
2022-08-08T23:24:08.509Z,13.70
2022-08-08T23:26:42.094Z,13.70
2022-08-08T23:29:16.707Z,13.70
2022-08-08T23:31:50.621Z,13.70
2022-08-08T23:34:24.526Z,13.80
2022-08-08T23:37:00.713Z,13.80
2022-08-08T23:39:55.048Z,13.70
2022-08-08T23:42:21.323Z,13.70
2022-08-08T23:44:56.098Z,13.80
2022-08-08T23:49:05.978Z,13.80
2022-08-08T23:50:05.329Z,13.80
2022-08-08T23:52:37.039Z,13.80
2022-08-08T23:55:19.580Z,13.80
2022-08-08T23:57:52.898Z,13.90
